createdAt,value
2019-03-09T00:01:46.648Z,3.60
2019-03-09T00:04:14.301Z,3.47
2019-03-09T00:06:41.829Z,3.60
2019-03-09T00:09:09.580Z,2.50
2019-03-09T00:11:37.685Z,2.20
2019-03-09T00:14:05.344Z,2.17
2019-03-09T00:16:33.355Z,1.90
2019-03-09T00:19:01.052Z,2.13
2019-03-09T00:21:28.742Z,2.30
2019-03-09T00:24:15.911Z,2.23
2019-03-09T00:26:51.789Z,2.37
2019-03-09T00:29:23.465Z,2.43
2019-03-09T00:31:54.572Z,2.30
2019-03-09T00:34:23.194Z,2.80
2019-03-09T00:36:50.800Z,3.07
2019-03-09T00:39:18.419Z,3.57
2019-03-09T00:41:45.987Z,3.20
2019-03-09T00:44:13.591Z,3.10
2019-03-09T00:46:41.202Z,3.13
2019-03-09T00:49:08.809Z,3.23
2019-03-09T00:51:36.369Z,3.13
2019-03-09T00:54:04.174Z,3.23
2019-03-09T00:56:31.738Z,3.03
2019-03-09T00:58:59.345Z,3.40
2019-03-09T01:01:26.897Z,3.57
2019-03-09T01:03:54.544Z,2.63
2019-03-09T01:06:22.080Z,2.23
2019-03-09T01:08:49.728Z,2.73
2019-03-09T01:11:17.278Z,2.70
2019-03-09T01:13:44.860Z,3.20
2019-03-09T01:16:12.389Z,3.27
2019-03-09T01:18:39.937Z,2.80
2019-03-09T01:21:07.510Z,2.73
2019-03-09T01:23:35.079Z,2.77
2019-03-09T01:26:02.656Z,2.80
2019-03-09T01:28:30.232Z,3.07
2019-03-09T01:30:58.906Z,2.80
2019-03-09T01:33:26.453Z,2.40
2019-03-09T01:35:54.168Z,2.70
2019-03-09T01:38:22.250Z,2.47
2019-03-09T01:40:49.868Z,2.10
2019-03-09T01:43:17.406Z,2.30
2019-03-09T01:45:45.009Z,2.40
2019-03-09T01:48:12.566Z,2.23
2019-03-09T01:50:40.145Z,2.53
2019-03-09T01:53:07.673Z,2.80
2019-03-09T01:55:35.298Z,2.40
2019-03-09T01:58:03.213Z,2.37
2019-03-09T02:00:30.879Z,19.30
2019-03-09T02:03:00.245Z,14.20
2019-03-09T02:05:27.829Z,8.90
2019-03-09T02:07:55.443Z,11.27
2019-03-09T02:10:23.052Z,3.73
2019-03-09T02:12:50.774Z,2.60
2019-03-09T02:15:18.471Z,3.27
2019-03-09T02:17:46.148Z,2.50
2019-03-09T02:20:13.903Z,2.33
2019-03-09T02:22:41.734Z,2.37
2019-03-09T02:25:09.914Z,2.70
2019-03-09T02:27:38.498Z,2.30
2019-03-09T02:30:06.363Z,2.17
2019-03-09T02:32:34.986Z,2.00
2019-03-09T02:35:04.853Z,1.90
2019-03-09T02:37:32.525Z,2.40
2019-03-09T02:40:03.473Z,2.10
2019-03-09T02:42:31.529Z,1.80
2019-03-09T02:44:59.181Z,1.80
2019-03-09T02:47:26.968Z,1.70
2019-03-09T02:49:54.593Z,1.70
2019-03-09T02:52:22.137Z,1.70
2019-03-09T02:54:49.753Z,1.67
2019-03-09T02:57:17.298Z,1.70
2019-03-09T02:59:44.874Z,1.73
2019-03-09T03:02:38.087Z,1.83
2019-03-09T03:05:06.130Z,1.80
2019-03-09T03:07:33.662Z,1.50
2019-03-09T03:10:01.359Z,1.50
2019-03-09T03:12:30.728Z,2.20
2019-03-09T03:14:58.507Z,2.93
2019-03-09T03:17:26.151Z,1.87
2019-03-09T03:19:53.805Z,2.03
2019-03-09T03:22:21.447Z,1.80
2019-03-09T03:24:49.033Z,1.90
2019-03-09T03:27:16.624Z,1.83
2019-03-09T03:29:44.150Z,1.70
2019-03-09T03:32:11.788Z,1.87
2019-03-09T03:34:39.349Z,1.80
2019-03-09T03:37:06.956Z,1.93
2019-03-09T03:39:34.477Z,1.90
2019-03-09T03:42:02.122Z,1.83
2019-03-09T03:44:29.629Z,1.70
2019-03-09T03:46:57.234Z,2.00
2019-03-09T03:49:25.322Z,2.57
2019-03-09T03:51:53.275Z,3.13
2019-03-09T03:54:21.845Z,3.60
2019-03-09T03:56:49.499Z,2.87
2019-03-09T03:59:17.105Z,3.20
2019-03-09T04:01:44.868Z,2.97
2019-03-09T04:04:12.431Z,3.43
2019-03-09T04:06:40.434Z,3.40
2019-03-09T04:09:08.081Z,2.80
2019-03-09T04:11:35.949Z,2.73
2019-03-09T04:14:04.788Z,2.33
2019-03-09T04:16:34.057Z,2.30
2019-03-09T04:19:01.737Z,1.80
2019-03-09T04:21:29.662Z,1.60
2019-03-09T04:23:57.393Z,1.60
2019-03-09T04:26:25.015Z,1.70
2019-03-09T04:28:52.708Z,1.70
2019-03-09T04:31:20.473Z,2.00
2019-03-09T04:33:48.101Z,1.70
2019-03-09T04:36:15.922Z,1.83
2019-03-09T04:38:43.661Z,2.00
2019-03-09T04:41:11.402Z,2.00
2019-03-09T04:43:39.212Z,2.10
2019-03-09T04:46:06.748Z,1.87
2019-03-09T04:48:34.322Z,2.13
2019-03-09T04:51:01.866Z,2.10
2019-03-09T04:53:29.471Z,1.97
2019-03-09T04:55:57.012Z,1.80
2019-03-09T04:58:24.605Z,1.53
2019-03-09T05:00:53.187Z,1.53
2019-03-09T05:03:21.679Z,1.93
2019-03-09T05:05:49.353Z,1.70
2019-03-09T05:08:28.516Z,2.03
2019-03-09T05:11:15.275Z,2.10
2019-03-09T05:14:10.449Z,2.10
2019-03-09T05:16:37.980Z,2.20
2019-03-09T05:19:07.253Z,2.57
2019-03-09T05:21:34.880Z,2.60
2019-03-09T05:24:02.488Z,2.40
2019-03-09T05:26:30.099Z,2.40
2019-03-09T05:28:58.713Z,2.37
2019-03-09T05:31:26.356Z,2.43
2019-03-09T05:33:55.673Z,2.00
2019-03-09T05:36:23.309Z,2.27
2019-03-09T05:38:52.643Z,2.60
2019-03-09T05:41:20.350Z,2.90
2019-03-09T05:43:47.979Z,2.50
2019-03-09T05:46:15.597Z,2.80
2019-03-09T05:48:44.794Z,2.80
2019-03-09T05:51:12.425Z,2.90
2019-03-09T05:53:40.133Z,2.67
2019-03-09T05:56:07.974Z,2.73
2019-03-09T05:58:35.629Z,3.00
2019-03-09T06:01:03.411Z,2.83
2019-03-09T06:03:31.100Z,2.97
2019-03-09T06:06:15.712Z,4.73
2019-03-09T06:08:43.653Z,5.03
2019-03-09T06:11:11.398Z,3.93
2019-03-09T06:13:39.060Z,3.37
2019-03-09T06:16:07.826Z,3.37
2019-03-09T06:18:35.565Z,4.70
2019-03-09T06:21:03.294Z,5.57
2019-03-09T06:23:31.105Z,6.10
2019-03-09T06:25:58.812Z,4.83
2019-03-09T06:28:26.537Z,5.10
2019-03-09T06:30:54.187Z,4.53
2019-03-09T06:33:29.642Z,3.47
2019-03-09T06:36:04.596Z,3.40
2019-03-09T06:38:36.712Z,4.37
2019-03-09T06:41:06.753Z,4.70
2019-03-09T06:43:34.351Z,5.07
2019-03-09T06:46:02.014Z,5.20
2019-03-09T06:48:29.618Z,4.27
2019-03-09T06:50:57.744Z,3.87
2019-03-09T06:53:25.396Z,3.73
2019-03-09T06:55:52.985Z,4.33
2019-03-09T06:58:20.720Z,4.80
2019-03-09T07:00:48.399Z,4.50
2019-03-09T07:03:16.044Z,4.27
2019-03-09T07:05:43.763Z,4.57
2019-03-09T07:08:11.457Z,3.73
2019-03-09T07:10:39.218Z,4.23
2019-03-09T07:13:06.869Z,4.30
2019-03-09T07:15:39.437Z,4.23
2019-03-09T07:18:12.184Z,4.40
2019-03-09T07:20:39.881Z,4.40
2019-03-09T07:23:07.629Z,4.07
2019-03-09T07:25:35.313Z,4.10
2019-03-09T07:28:07.853Z,4.03
2019-03-09T07:30:35.526Z,3.63
2019-03-09T07:33:04.749Z,4.40
2019-03-09T07:35:32.471Z,3.60
2019-03-09T07:38:00.110Z,3.50
2019-03-09T07:40:27.724Z,3.30
2019-03-09T07:42:55.363Z,3.50
2019-03-09T07:45:22.877Z,3.80
2019-03-09T07:47:50.443Z,3.20
2019-03-09T07:50:18.068Z,3.00
2019-03-09T07:52:45.813Z,2.67
2019-03-09T07:55:13.724Z,2.40
2019-03-09T07:57:41.354Z,2.73
2019-03-09T08:00:11.493Z,2.50
2019-03-09T08:02:39.195Z,2.50
2019-03-09T08:05:06.827Z,3.03
2019-03-09T08:07:34.444Z,2.53
2019-03-09T08:10:02.048Z,2.50
2019-03-09T08:12:29.779Z,2.50
2019-03-09T08:14:57.416Z,2.20
2019-03-09T08:17:25.040Z,2.33
2019-03-09T08:19:53.748Z,2.50
2019-03-09T08:22:21.403Z,2.40
2019-03-09T08:24:50.084Z,2.83
2019-03-09T08:27:17.636Z,2.80
2019-03-09T08:29:45.269Z,2.70
2019-03-09T08:32:12.939Z,3.03
2019-03-09T08:34:40.632Z,3.00
2019-03-09T08:37:08.217Z,2.90
2019-03-09T08:39:35.863Z,2.70
2019-03-09T08:42:05.277Z,3.00
2019-03-09T08:44:32.838Z,3.03
2019-03-09T08:47:00.487Z,2.83
2019-03-09T08:49:28.229Z,3.23
2019-03-09T08:51:55.878Z,2.50
2019-03-09T08:54:23.448Z,3.00
2019-03-09T08:56:51.220Z,3.07
2019-03-09T08:59:18.793Z,2.60
2019-03-09T09:01:46.492Z,3.20
2019-03-09T09:04:14.030Z,2.57
2019-03-09T09:06:41.789Z,2.70
2019-03-09T09:09:09.356Z,2.60
2019-03-09T09:11:37.228Z,2.83
2019-03-09T09:14:04.817Z,2.70
2019-03-09T09:16:32.488Z,2.70
2019-03-09T09:19:00.072Z,2.87
2019-03-09T09:21:27.754Z,2.70
2019-03-09T09:23:56.553Z,2.43
2019-03-09T09:26:24.169Z,2.27
2019-03-09T09:28:51.799Z,2.77
2019-03-09T09:31:19.368Z,3.03
2019-03-09T09:33:46.962Z,2.20
2019-03-09T09:36:14.516Z,2.67
2019-03-09T09:38:42.203Z,2.60
2019-03-09T09:41:09.743Z,2.70
2019-03-09T09:43:37.419Z,2.93
2019-03-09T09:46:04.932Z,3.37
2019-03-09T09:48:34.388Z,2.63
2019-03-09T09:51:02.056Z,2.77
2019-03-09T09:53:30.007Z,2.93
2019-03-09T09:55:57.674Z,2.80
2019-03-09T09:58:25.393Z,3.20
2019-03-09T10:00:53.062Z,3.50
2019-03-09T10:03:20.714Z,3.00
2019-03-09T10:05:48.420Z,3.23
2019-03-09T10:08:16.147Z,3.20
2019-03-09T10:10:43.794Z,2.57
2019-03-09T10:13:11.508Z,3.30
2019-03-09T10:15:39.574Z,3.13
2019-03-09T10:18:07.512Z,3.73
2019-03-09T10:20:35.191Z,3.10
2019-03-09T10:23:04.800Z,3.57
2019-03-09T10:25:32.567Z,2.90
2019-03-09T10:28:00.297Z,3.30
2019-03-09T10:30:27.998Z,2.87
2019-03-09T10:32:57.149Z,3.63
2019-03-09T10:35:24.814Z,3.03
2019-03-09T10:37:52.474Z,3.47
2019-03-09T10:40:20.158Z,2.93
2019-03-09T10:42:47.819Z,3.23
2019-03-09T10:45:15.643Z,3.40
2019-03-09T10:47:43.381Z,3.00
2019-03-09T10:50:11.727Z,3.00
2019-03-09T10:52:40.467Z,3.47
2019-03-09T10:55:10.176Z,2.97
2019-03-09T10:57:38.881Z,2.73
2019-03-09T11:00:13.349Z,3.50
2019-03-09T11:02:41.083Z,3.27
2019-03-09T11:05:09.603Z,2.80
2019-03-09T11:07:37.339Z,3.50
2019-03-09T11:10:05.390Z,3.43
2019-03-09T11:12:32.988Z,3.10
2019-03-09T11:15:00.684Z,2.90
2019-03-09T11:17:28.341Z,3.40
2019-03-09T11:19:56.064Z,3.00
2019-03-09T11:22:23.758Z,3.07
2019-03-09T11:24:51.378Z,3.30
2019-03-09T11:27:19.035Z,3.60
2019-03-09T11:29:46.676Z,3.40
2019-03-09T11:32:14.406Z,3.13
2019-03-09T11:34:42.090Z,3.03
2019-03-09T11:37:09.677Z,2.93
2019-03-09T11:39:39.051Z,3.53
2019-03-09T11:42:06.575Z,3.07
2019-03-09T11:44:34.227Z,2.90
2019-03-09T11:47:01.791Z,2.80
2019-03-09T11:49:29.426Z,3.43
2019-03-09T11:51:57.020Z,3.50
2019-03-09T11:54:24.614Z,3.20
2019-03-09T11:56:52.177Z,3.30
2019-03-09T11:59:19.792Z,3.57
2019-03-09T12:01:47.381Z,3.50
2019-03-09T12:04:15.379Z,2.90
2019-03-09T12:06:42.965Z,2.70
2019-03-09T12:09:10.599Z,3.30
2019-03-09T12:11:38.288Z,3.37
2019-03-09T12:14:05.917Z,3.00
2019-03-09T12:16:33.500Z,3.20
2019-03-09T12:19:01.222Z,2.93
2019-03-09T12:21:28.772Z,3.10
2019-03-09T12:23:56.405Z,2.90
2019-03-09T12:26:24.940Z,2.83
2019-03-09T12:28:52.640Z,2.73
2019-03-09T12:31:20.159Z,2.67
2019-03-09T12:33:47.803Z,3.33
2019-03-09T12:36:15.378Z,2.83
2019-03-09T12:38:43.048Z,3.07
2019-03-09T12:41:10.608Z,3.07
2019-03-09T12:43:38.177Z,3.00
2019-03-09T12:46:05.735Z,3.50
2019-03-09T12:48:33.267Z,3.10
2019-03-09T12:51:00.791Z,3.10
2019-03-09T12:53:28.467Z,3.00
2019-03-09T12:55:56.036Z,3.23
2019-03-09T12:58:23.697Z,2.87
2019-03-09T13:00:51.322Z,2.60
2019-03-09T13:03:19.100Z,2.43
2019-03-09T13:05:46.970Z,2.63
2019-03-09T13:08:14.672Z,2.80
2019-03-09T13:10:42.290Z,2.90
2019-03-09T13:13:09.858Z,2.47
2019-03-09T13:15:37.599Z,2.50
2019-03-09T13:18:05.128Z,2.00
2019-03-09T13:20:32.802Z,2.50
2019-03-09T13:23:00.386Z,2.50
2019-03-09T13:25:28.137Z,2.60
2019-03-09T13:27:55.671Z,2.27
2019-03-09T13:30:23.420Z,2.83
2019-03-09T13:32:51.052Z,2.30
2019-03-09T13:35:18.717Z,3.10
2019-03-09T13:37:46.255Z,2.73
2019-03-09T13:40:14.274Z,2.90
2019-03-09T13:42:41.833Z,2.20
2019-03-09T13:45:10.243Z,2.33
2019-03-09T13:47:37.765Z,2.20
2019-03-09T13:50:06.216Z,2.20
2019-03-09T13:52:33.770Z,2.27
2019-03-09T13:55:01.346Z,2.33
2019-03-09T13:57:28.957Z,2.27
2019-03-09T13:59:56.543Z,2.37
2019-03-09T14:02:24.131Z,2.10
2019-03-09T14:04:51.699Z,2.00
2019-03-09T14:07:19.281Z,2.20
2019-03-09T14:09:46.880Z,2.10
2019-03-09T14:12:14.417Z,2.33
2019-03-09T14:14:41.998Z,2.00
2019-03-09T14:17:09.606Z,2.20
2019-03-09T14:19:37.154Z,2.50
2019-03-09T14:22:04.772Z,2.53
2019-03-09T14:24:32.319Z,2.20
2019-03-09T14:26:59.968Z,2.47
2019-03-09T14:29:27.542Z,2.30
2019-03-09T14:31:55.141Z,2.37
2019-03-09T14:34:22.718Z,2.00
2019-03-09T14:36:50.342Z,2.40
2019-03-09T14:39:17.867Z,2.27
2019-03-09T14:41:45.494Z,2.50
2019-03-09T14:44:13.039Z,2.40
2019-03-09T14:46:40.628Z,2.57
2019-03-09T14:49:08.241Z,2.40
2019-03-09T14:51:35.832Z,2.30
2019-03-09T14:54:03.446Z,2.50
2019-03-09T14:56:31.043Z,2.50
2019-03-09T14:58:58.688Z,2.60
2019-03-09T15:01:26.345Z,2.80
2019-03-09T15:03:53.948Z,3.17
2019-03-09T15:06:22.166Z,2.93
2019-03-09T15:08:49.839Z,2.90
2019-03-09T15:11:17.437Z,2.70
2019-03-09T15:13:44.994Z,2.83
2019-03-09T15:16:12.639Z,3.43
2019-03-09T15:18:40.267Z,2.90
2019-03-09T15:21:07.878Z,2.90
2019-03-09T15:23:35.398Z,2.87
2019-03-09T15:26:03.042Z,2.80
2019-03-09T15:28:30.561Z,2.80
2019-03-09T15:30:58.188Z,2.70
2019-03-09T15:33:25.695Z,2.70
2019-03-09T15:35:53.321Z,2.87
2019-03-09T15:38:20.884Z,2.90
2019-03-09T15:40:48.635Z,2.67
2019-03-09T15:43:16.193Z,2.70
2019-03-09T15:45:43.831Z,2.57
2019-03-09T15:48:11.342Z,2.60
2019-03-09T15:50:39.000Z,2.60
2019-03-09T15:53:06.595Z,2.90
2019-03-09T15:55:34.209Z,2.67
2019-03-09T15:58:02.961Z,2.70
2019-03-09T16:00:30.549Z,2.63
2019-03-09T16:02:58.137Z,2.73
2019-03-09T16:05:25.747Z,2.77
2019-03-09T16:07:53.280Z,2.77
2019-03-09T16:10:20.909Z,2.83
2019-03-09T16:12:48.461Z,2.90
2019-03-09T16:15:16.155Z,3.80
2019-03-09T16:17:43.730Z,2.77
2019-03-09T16:20:13.245Z,2.80
2019-03-09T16:22:40.976Z,2.77
2019-03-09T16:25:08.590Z,2.50
2019-03-09T16:27:36.165Z,2.50
2019-03-09T16:30:05.067Z,2.40
2019-03-09T16:32:32.771Z,3.00
2019-03-09T16:35:00.464Z,4.07
2019-03-09T16:37:28.130Z,6.83
2019-03-09T16:39:55.831Z,6.60
2019-03-09T16:42:23.505Z,6.37
2019-03-09T16:44:51.127Z,4.90
2019-03-09T16:47:18.720Z,3.70
2019-03-09T16:49:46.357Z,3.80
2019-03-09T16:52:13.921Z,4.40
2019-03-09T16:54:41.576Z,4.57
2019-03-09T16:57:09.210Z,5.20
2019-03-09T16:59:36.813Z,4.87
2019-03-09T17:02:04.389Z,3.80
2019-03-09T17:04:31.966Z,3.60
2019-03-09T17:06:59.578Z,4.17
2019-03-09T17:09:27.207Z,6.20
2019-03-09T17:11:54.759Z,5.10
2019-03-09T17:14:22.531Z,4.73
2019-03-09T17:16:50.101Z,4.00
2019-03-09T17:19:19.365Z,3.90
2019-03-09T17:21:46.890Z,3.70
2019-03-09T17:24:14.472Z,3.97
2019-03-09T17:26:42.069Z,4.63
2019-03-09T17:29:09.665Z,4.50
2019-03-09T17:31:37.241Z,5.17
2019-03-09T17:34:04.873Z,5.10
2019-03-09T17:36:32.449Z,6.57
2019-03-09T17:39:00.056Z,9.13
2019-03-09T17:41:27.666Z,6.30
2019-03-09T17:43:57.001Z,6.57
2019-03-09T17:46:24.552Z,6.57
2019-03-09T17:48:52.172Z,6.07
2019-03-09T17:51:19.687Z,6.87
2019-03-09T17:53:47.340Z,6.20
2019-03-09T17:56:14.910Z,6.10
2019-03-09T17:58:42.497Z,5.93
2019-03-09T18:01:10.060Z,6.93
2019-03-09T18:03:37.679Z,6.90
2019-03-09T18:06:05.283Z,7.67
2019-03-09T18:08:32.910Z,7.83
2019-03-09T18:11:02.890Z,6.97
2019-03-09T18:13:31.575Z,6.90
2019-03-09T18:15:59.279Z,13.13
2019-03-09T18:18:26.846Z,15.67
2019-03-09T18:20:54.518Z,13.17
2019-03-09T18:23:22.163Z,9.93
2019-03-09T18:25:49.790Z,8.00
2019-03-09T18:28:17.433Z,11.80
2019-03-09T18:30:45.161Z,12.13
2019-03-09T18:33:12.803Z,11.40
2019-03-09T18:35:41.840Z,9.70
2019-03-09T18:38:09.672Z,9.13
2019-03-09T18:40:38.285Z,8.63
2019-03-09T18:43:05.828Z,9.43
2019-03-09T18:45:33.484Z,9.00
2019-03-09T18:48:01.108Z,10.17
2019-03-09T18:50:28.770Z,9.87
2019-03-09T18:52:56.361Z,9.77
2019-03-09T18:55:23.990Z,9.97
2019-03-09T18:57:51.550Z,10.07
2019-03-09T19:00:19.327Z,10.23
2019-03-09T19:02:46.897Z,8.97
2019-03-09T19:05:14.605Z,9.00
2019-03-09T19:07:42.134Z,9.43
2019-03-09T19:10:10.694Z,9.07
2019-03-09T19:12:38.236Z,9.63
2019-03-09T19:15:07.462Z,9.50
2019-03-09T19:17:35.093Z,10.00
2019-03-09T19:20:02.786Z,7.40
2019-03-09T19:22:30.456Z,7.10
2019-03-09T19:24:58.137Z,7.90
2019-03-09T19:27:25.787Z,8.20
2019-03-09T19:29:53.597Z,7.40
2019-03-09T19:32:21.191Z,7.90
2019-03-09T19:34:48.772Z,6.70
2019-03-09T19:37:16.421Z,6.77
2019-03-09T19:39:44.177Z,6.20
2019-03-09T19:42:12.914Z,6.23
2019-03-09T19:44:40.484Z,5.73
2019-03-09T19:47:08.145Z,5.60
2019-03-09T19:49:35.708Z,5.57
2019-03-09T19:52:03.336Z,5.23
2019-03-09T19:54:30.898Z,5.50
2019-03-09T19:56:58.671Z,5.23
2019-03-09T19:59:26.347Z,5.60
2019-03-09T20:01:53.999Z,5.73
2019-03-09T20:04:21.670Z,6.77
2019-03-09T20:06:49.416Z,6.87
2019-03-09T20:09:17.512Z,5.77
2019-03-09T20:11:45.182Z,6.00
2019-03-09T20:14:12.938Z,4.40
2019-03-09T20:16:40.711Z,5.20
2019-03-09T20:19:08.430Z,4.47
2019-03-09T20:21:36.165Z,4.30
2019-03-09T20:24:03.776Z,4.40
2019-03-09T20:26:31.493Z,4.07
2019-03-09T20:28:59.105Z,4.47
2019-03-09T20:31:27.274Z,4.43
2019-03-09T20:33:54.953Z,4.33
2019-03-09T20:36:22.673Z,4.80
2019-03-09T20:38:50.404Z,4.87
2019-03-09T20:41:18.060Z,4.13
2019-03-09T20:43:45.718Z,4.50
2019-03-09T20:46:13.700Z,4.50
2019-03-09T20:48:41.401Z,4.10
2019-03-09T20:51:10.480Z,4.13
2019-03-09T20:53:38.225Z,4.33
2019-03-09T20:56:05.969Z,4.37
2019-03-09T20:58:33.629Z,4.77
2019-03-09T21:01:01.419Z,4.70
2019-03-09T21:03:30.086Z,5.40
2019-03-09T21:05:57.769Z,4.63
2019-03-09T21:08:25.999Z,4.63
2019-03-09T21:11:03.311Z,5.07
2019-03-09T21:13:23.266Z,4.83
2019-03-09T21:15:50.876Z,4.73
2019-03-09T21:18:18.619Z,5.37
2019-03-09T21:20:46.553Z,4.90
2019-03-09T21:23:14.095Z,5.20
2019-03-09T21:25:41.793Z,5.57
2019-03-09T21:28:09.314Z,5.80
2019-03-09T21:30:36.945Z,5.23
2019-03-09T21:33:04.490Z,5.90
2019-03-09T21:35:32.104Z,5.33
2019-03-09T21:37:59.779Z,5.87
2019-03-09T21:40:27.791Z,5.67
2019-03-09T21:42:55.502Z,5.33
2019-03-09T21:45:23.115Z,5.43
2019-03-09T21:47:50.811Z,6.07
2019-03-09T21:50:18.361Z,5.27
2019-03-09T21:52:46.041Z,6.70
2019-03-09T21:55:13.598Z,6.53
2019-03-09T21:57:41.236Z,6.50
2019-03-09T22:00:09.691Z,5.73
2019-03-09T22:02:37.713Z,6.57
2019-03-09T22:05:06.984Z,6.77
2019-03-09T22:07:34.656Z,7.50
2019-03-09T22:10:02.179Z,6.90
2019-03-09T22:12:29.927Z,7.00
2019-03-09T22:14:57.564Z,6.50
2019-03-09T22:17:25.251Z,6.90
2019-03-09T22:19:52.984Z,6.50
2019-03-09T22:22:20.672Z,6.30
2019-03-09T22:24:48.427Z,6.43
2019-03-09T22:27:16.099Z,7.07
2019-03-09T22:29:43.829Z,6.90
2019-03-09T22:32:11.403Z,7.07
2019-03-09T22:34:39.034Z,7.10
2019-03-09T22:37:06.555Z,6.80
2019-03-09T22:39:34.302Z,7.43
2019-03-09T22:42:01.879Z,6.10
2019-03-09T22:44:29.608Z,7.03
2019-03-09T22:46:57.134Z,6.97
2019-03-09T22:49:24.920Z,7.20
2019-03-09T22:51:52.452Z,6.77
2019-03-09T22:54:20.147Z,6.33
2019-03-09T22:56:47.743Z,7.20
2019-03-09T22:59:15.429Z,6.27
2019-03-09T23:01:42.992Z,6.63
2019-03-09T23:04:10.561Z,6.10
2019-03-09T23:06:38.114Z,6.47
2019-03-09T23:09:05.826Z,6.43
2019-03-09T23:11:35.231Z,6.63
2019-03-09T23:14:02.804Z,6.50
2019-03-09T23:16:30.388Z,6.47
2019-03-09T23:18:58.161Z,6.17
2019-03-09T23:21:25.850Z,5.87
2019-03-09T23:23:53.412Z,5.80
2019-03-09T23:26:21.025Z,5.50
2019-03-09T23:28:49.010Z,6.00
2019-03-09T23:31:16.736Z,5.60
2019-03-09T23:33:44.267Z,5.50
2019-03-09T23:36:11.949Z,5.90
2019-03-09T23:38:40.688Z,5.17
2019-03-09T23:41:08.317Z,5.43
2019-03-09T23:43:35.945Z,6.30
2019-03-09T23:46:03.489Z,5.60
2019-03-09T23:48:31.106Z,5.63
2019-03-09T23:50:58.770Z,6.80
2019-03-09T23:53:26.410Z,5.50
2019-03-09T23:55:54.026Z,6.47
2019-03-09T23:58:21.631Z,6.10
